createdAt,value
2022-11-03T00:04:47.171Z,41.10
2022-11-03T00:09:50.598Z,51.83
2022-11-03T00:14:55.246Z,47.03
2022-11-03T00:19:58.543Z,52.28
2022-11-03T00:25:02.052Z,42.10
2022-11-03T00:30:08.013Z,29.37
2022-11-03T00:35:11.331Z,18.33
2022-11-03T00:40:14.694Z,22.33
2022-11-03T00:45:19.351Z,40.23
2022-11-03T00:50:22.625Z,24.83
2022-11-03T00:55:25.900Z,20.90
2022-11-03T01:00:30.583Z,24.30
2022-11-03T01:11:11.676Z,15.80
2022-11-03T01:16:16.320Z,23.30
2022-11-03T01:21:19.733Z,48.70
2022-11-03T01:26:23.231Z,30.00
2022-11-03T01:31:29.029Z,39.47
2022-11-03T01:36:32.526Z,55.67
2022-11-03T01:41:35.815Z,36.75
2022-11-03T01:46:44.148Z,34.50
2022-11-03T01:51:51.350Z,29.50
2022-11-03T01:56:55.833Z,30.73
2022-11-03T02:02:00.912Z,48.20
2022-11-03T02:07:18.363Z,29.55
2022-11-03T02:12:23.259Z,41.17
2022-11-03T02:17:30.129Z,38.55
2022-11-03T02:22:49.996Z,28.77
2022-11-03T02:27:54.724Z,46.15
2022-11-03T02:33:04.768Z,53.77
2022-11-03T02:38:13.339Z,48.30
2022-11-03T02:43:19.544Z,62.57
2022-11-03T02:48:23.005Z,45.00
2022-11-03T02:53:29.743Z,38.53
2022-11-03T02:58:40.678Z,42.42
2022-11-03T03:03:49.257Z,30.35
2022-11-03T03:08:57.552Z,27.67
2022-11-03T03:14:02.242Z,40.65
2022-11-03T03:19:11.448Z,32.53
2022-11-03T03:24:20.847Z,65.77
2022-11-03T03:29:29.419Z,30.70
2022-11-03T03:34:36.507Z,42.33
2022-11-03T03:39:43.177Z,28.73
2022-11-03T03:44:48.309Z,74.13
2022-11-03T03:49:51.674Z,52.40
2022-11-03T03:54:55.750Z,44.33
2022-11-03T04:00:00.415Z,49.30
2022-11-03T04:05:03.748Z,119.63
2022-11-03T04:10:08.147Z,41.27
2022-11-03T04:15:31.727Z,38.40
2022-11-03T04:20:52.632Z,44.55
2022-11-03T04:25:57.509Z,72.20
2022-11-03T04:31:02.350Z,44.88
2022-11-03T04:36:13.503Z,48.13
2022-11-03T04:41:19.481Z,63.43
2022-11-03T04:46:27.716Z,68.37
2022-11-03T04:51:34.320Z,68.90
2022-11-03T04:56:37.604Z,116.32
2022-11-03T05:01:43.903Z,34.85
2022-11-03T05:06:51.444Z,56.70
2022-11-03T05:11:54.905Z,28.75
2022-11-03T05:17:01.218Z,80.80
2022-11-03T05:22:06.355Z,48.43
2022-11-03T05:27:17.717Z,34.15
2022-11-03T05:32:25.539Z,32.35
2022-11-03T05:37:30.703Z,157.93
2022-11-03T05:42:37.007Z,44.80
2022-11-03T05:47:42.119Z,113.28
2022-11-03T05:52:46.934Z,96.55
2022-11-03T05:57:50.203Z,170.15
2022-11-03T06:02:55.370Z,50.45
2022-11-03T06:08:02.225Z,60.17
2022-11-03T06:13:15.119Z,37.47
2022-11-03T06:18:22.808Z,52.70
2022-11-03T06:23:27.242Z,57.47
2022-11-03T06:28:36.862Z,70.93
2022-11-03T06:33:41.639Z,79.63
2022-11-03T06:38:50.911Z,49.38
2022-11-03T06:43:54.273Z,48.97
2022-11-03T06:49:00.329Z,41.38
2022-11-03T06:54:09.831Z,49.58
2022-11-03T06:59:15.443Z,78.07
2022-11-03T07:04:22.772Z,44.63
2022-11-03T07:09:27.464Z,21.80
2022-11-03T07:14:33.215Z,12.80
2022-11-03T07:19:40.992Z,19.88
2022-11-03T07:24:48.135Z,16.43
2022-11-03T07:29:52.777Z,20.63
2022-11-03T07:35:05.751Z,46.10
2022-11-03T07:40:14.545Z,71.77
2022-11-03T08:06:02.717Z,19.00
2022-11-03T08:11:08.471Z,17.35
2022-11-03T08:16:11.880Z,19.77
2022-11-03T08:21:18.589Z,14.47
2022-11-03T08:26:22.895Z,6.28
2022-11-03T08:31:26.240Z,7.68
2022-11-03T08:36:31.241Z,6.10
2022-11-03T08:41:34.553Z,3.40
2022-11-03T08:46:37.892Z,3.63
2022-11-03T08:51:44.564Z,3.50
2022-11-03T08:56:48.974Z,3.50
2022-11-03T09:12:01.707Z,2.70
2022-11-03T09:17:05.078Z,3.53
2022-11-03T09:22:09.771Z,2.67
2022-11-03T09:27:13.022Z,2.13
2022-11-03T09:32:21.838Z,2.47
2022-11-03T09:37:28.614Z,2.28
2022-11-03T09:42:34.542Z,1.98
2022-11-03T09:47:40.827Z,2.10
2022-11-03T10:08:06.651Z,4.82
2022-11-03T10:38:36.404Z,2.40
2022-11-03T10:43:40.473Z,3.17
2022-11-03T10:48:43.956Z,3.40
2022-11-03T10:53:48.667Z,2.83
2022-11-03T10:58:52.590Z,3.63
2022-11-03T11:03:56.491Z,3.20
2022-11-03T11:09:04.918Z,3.88
2022-11-03T11:14:37.129Z,2.70
2022-11-03T11:20:25.571Z,2.70
2022-11-03T11:26:14.845Z,4.38
2022-11-03T11:31:32.563Z,3.40
2022-11-03T11:36:36.403Z,3.50
2022-11-03T11:42:13.618Z,4.20
2022-11-03T11:47:51.701Z,3.47
2022-11-03T11:53:03.835Z,3.63
2022-11-03T11:58:26.158Z,4.57
2022-11-03T12:03:39.166Z,3.90
2022-11-03T12:08:43.835Z,5.90
2022-11-03T12:13:51.633Z,3.88
2022-11-03T12:18:55.439Z,4.07
2022-11-03T12:23:58.804Z,4.57
2022-11-03T12:29:03.463Z,4.28
2022-11-03T12:34:06.757Z,3.53
2022-11-03T12:39:10.064Z,3.50
2022-11-03T12:44:14.815Z,4.72
2022-11-03T12:49:18.466Z,4.30
2022-11-03T12:54:22.863Z,4.20
2022-11-03T12:59:27.627Z,6.43
2022-11-03T13:04:30.938Z,6.75
2022-11-03T13:09:36.130Z,4.30
2022-11-03T13:14:44.520Z,5.73
2022-11-03T13:19:54.431Z,6.13
2022-11-03T13:24:58.192Z,4.95
2022-11-03T13:30:03.010Z,6.03
2022-11-03T13:35:12.384Z,5.43
2022-11-03T13:45:42.469Z,6.63
2022-11-03T13:50:46.051Z,5.13
2022-11-03T13:55:49.619Z,4.90
2022-11-03T14:00:54.643Z,6.20
2022-11-03T14:05:57.990Z,6.45
2022-11-03T14:11:21.526Z,6.57
2022-11-03T14:16:26.355Z,5.10
2022-11-03T14:21:29.686Z,5.97
2022-11-03T14:26:42.358Z,8.10
2022-11-03T14:31:47.938Z,6.87
2022-11-03T14:36:51.250Z,7.95
2022-11-03T14:42:06.646Z,8.40
2022-11-03T14:47:12.773Z,6.82
2022-11-03T14:52:16.948Z,8.53
2022-11-03T14:57:20.283Z,8.15
2022-11-03T15:02:25.075Z,8.98
2022-11-03T15:07:28.379Z,8.53
2022-11-03T15:12:31.692Z,8.77
2022-11-03T15:17:36.392Z,8.93
2022-11-03T15:28:02.986Z,7.47
2022-11-03T15:33:07.666Z,12.93
2022-11-03T15:38:10.990Z,15.82
2022-11-03T15:43:14.293Z,17.10
2022-11-03T15:48:18.950Z,19.55
2022-11-03T15:53:22.244Z,20.52
2022-11-03T15:58:25.578Z,13.73
2022-11-03T16:03:30.376Z,14.82
2022-11-03T16:08:33.749Z,9.30
2022-11-03T16:13:37.287Z,16.73
2022-11-03T16:18:42.012Z,11.93
2022-11-03T16:23:45.519Z,11.02
2022-11-03T16:28:48.915Z,22.67
2022-11-03T16:33:56.396Z,17.08
2022-11-03T16:38:59.720Z,14.30
2022-11-03T16:44:03.046Z,19.80
2022-11-03T16:49:07.689Z,19.75
2022-11-03T16:54:10.997Z,15.83
2022-11-03T16:59:14.358Z,15.77
2022-11-03T17:04:19.194Z,17.50
2022-11-03T17:09:22.593Z,15.50
2022-11-03T17:14:25.975Z,17.48
2022-11-03T19:06:15.174Z,17.60
2022-11-03T19:11:18.608Z,17.70
2022-11-03T19:16:23.515Z,17.07
2022-11-03T20:37:59.636Z,20.47
2022-11-03T23:12:37.174Z,14.30
2022-11-03T23:17:58.117Z,12.50
2022-11-03T23:23:01.525Z,15.45
2022-11-03T23:28:06.414Z,17.27
2022-11-03T23:33:09.916Z,19.23
2022-11-03T23:38:13.553Z,15.48
2022-11-03T23:58:49.047Z,15.07
